Time;durP1;ratioP1;P1;durP2;ratioP2;P2;SDS_P1;SDS_P2;PMS_P1;PMS_P2;Temp;Humidity;BMP_temperature;BMP_pressure;BME280_temperature;BME280_humidity;BME280_pressure;Samples;Min_cycle;Max_cycle;Signal;HPM_P1;HPM_P2
2021/09/12 00:04:21;;;;;;;;;;;;;;;;;;10225623;28;19914;-62
2021/09/12 00:09:18;;;;;;;;;;;;;;;;;;10255423;28;19952;-61
2021/09/12 00:14:17;;;;;;;;;;;;;;;;;;10242111;28;20335;-63
2021/09/12 00:19:14;;;;;;;;;;;;;;;;;;10241413;28;19914;-60
2021/09/12 00:24:11;;;;;;;;;;;;;;;;;;10257126;28;20379;-61
2021/09/12 00:29:09;;;;;;;;;;;;;;;;;;10222742;28;19917;-61
2021/09/12 00:34:09;;;;;;;;;;;;;;;;;;10228127;28;19920;-61
2021/09/12 00:39:06;;;;;;;;;;;;;;;;;;10247901;28;20027;-61
2021/09/12 00:44:03;;;;;;;;;;;;;;;;;;10247528;28;20013;-62
2021/09/12 00:49:01;;;;;;;;;;;;;;;;;;10244604;28;20361;-61
2021/09/12 00:53:58;;;;;;;;;;;;;;;;;;10245493;28;19928;-61
2021/09/12 00:58:55;;;;;;;;;;;;;;;;;;10253798;28;19913;-61
2021/09/12 01:03:53;;;;;;;;;;;;;;;;;;10249225;28;20350;-60
2021/09/12 01:08:50;;;;;;;;;;;;;;;;;;10248559;28;20434;-61
2021/09/12 01:13:47;;;;;;;;;;;;;;;;;;10243063;28;19925;-61
2021/09/12 01:18:44;;;;;;;;;;;;;;;;;;10247299;28;19914;-60
2021/09/12 01:23:42;;;;;;;;;;;;;;;;;;10234124;28;19940;-61
2021/09/12 01:28:39;;;;;;;;;;;;;;;;;;10224825;28;19913;-61
2021/09/12 01:33:36;;;;;;;;;;;;;;;;;;10238444;28;19918;-61
2021/09/12 01:38:34;;;;;;;;;;;;;;;;;;10228361;28;20028;-59
2021/09/12 01:43:31;;;;;;;;;;;;;;;;;;10262986;28;19925;-62
2021/09/12 01:48:28;;;;;;;;;;;;;;;;;;10249043;28;19914;-62
2021/09/12 01:53:25;;;;;;;;;;;;;;;;;;10247648;28;19921;-61
2021/09/12 01:58:23;;;;;;;;;;;;;;;;;;10246489;28;19924;-61
2021/09/12 02:03:20;;;;;;;;;;;;;;;;;;10252201;28;19933;-62
2021/09/12 02:08:17;;;;;;;;;;;;;;;;;;10260117;28;19914;-62
2021/09/12 02:13:14;;;;;;;;;;;;;;;;;;10256296;28;20833;-62
2021/09/12 02:18:12;;;;;;;;;;;;;;;;;;10264760;28;20291;-62
2021/09/12 02:23:09;;;;;;;;;;;;;;;;;;10276039;28;20381;-62
2021/09/12 02:28:06;;;;;;;;;;;;;;;;;;10274347;28;19913;-62
2021/09/12 02:33:04;;;;;;;;;;;;;;;;;;10285898;28;19918;-63
2021/09/12 02:38:01;;;;;;;;;;;;;;;;;;10281180;28;19987;-62
2021/09/12 02:42:58;;;;;;;;;;;;;;;;;;10285929;28;20382;-61
2021/09/12 02:47:55;;;;;;;;;;;;;;;;;;10305164;28;19913;-63
2021/09/12 02:52:53;;;;;;;;;;;;;;;;;;10267938;28;19913;-62
2021/09/12 02:57:50;;;;;;;;;;;;;;;;;;10302911;28;19917;-62
2021/09/12 03:02:47;;;;;;;;;;;;;;;;;;10286668;28;19960;-62
2021/09/12 03:07:44;;;;;;;;;;;;;;;;;;10285151;28;19920;-62
2021/09/12 03:12:41;;;;;;;;;;;;;;;;;;10307132;28;19968;-62
2021/09/12 03:17:39;;;;;;;;;;;;;;;;;;10299546;28;19924;-63
2021/09/12 03:22:36;;;;;;;;;;;;;;;;;;10273774;28;20400;-62
2021/09/12 03:27:33;;;;;;;;;;;;;;;;;;10307354;28;19982;-63
2021/09/12 03:32:30;;;;;;;;;;;;;;;;;;10267540;28;19914;-62
2021/09/12 03:37:28;;;;;;;;;;;;;;;;;;10266196;28;20013;-62
2021/09/12 03:42:25;;;;;;;;;;;;;;;;;;10266108;28;19921;-63
2021/09/12 03:47:22;;;;;;;;;;;;;;;;;;10305822;28;19913;-63
2021/09/12 03:52:20;;;;;;;;;;;;;;;;;;10305492;28;19948;-62
2021/09/12 03:57:17;;;;;;;;;;;;;;;;;;10322859;28;19924;-62
2021/09/12 04:02:14;;;;;;;;;;;;;;;;;;10291076;28;19952;-62
2021/09/12 04:07:11;;;;;;;;;;;;;;;;;;10273013;28;19920;-62
2021/09/12 04:12:09;;;;;;;;;;;;;;;;;;10266504;28;19964;-62
2021/09/12 04:17:06;;;;;;;;;;;;;;;;;;10265832;28;19922;-62
2021/09/12 04:22:03;;;;;;;;;;;;;;;;;;10269482;28;20413;-62
2021/09/12 04:27:00;;;;;;;;;;;;;;;;;;10306549;28;19913;-63
2021/09/12 04:31:58;;;;;;;;;;;;;;;;;;10270517;28;19936;-63
2021/09/12 04:36:55;;;;;;;;;;;;;;;;;;10265798;28;20382;-62
2021/09/12 04:41:52;;;;;;;;;;;;;;;;;;10263826;28;19921;-62
2021/09/12 04:46:49;;;;;;;;;;;;;;;;;;10300516;28;20160;-61
2021/09/12 04:51:47;;;;;;;;;;;;;;;;;;10305504;28;20302;-62
2021/09/12 04:56:44;;;;;;;;;;;;;;;;;;10305518;28;19928;-62
2021/09/12 05:01:41;;;;;;;;;;;;;;;;;;10308555;28;20362;-62
2021/09/12 05:06:38;;;;;;;;;;;;;;;;;;10275335;28;19936;-63
2021/09/12 05:11:36;;;;;;;;;;;;;;;;;;10304249;28;19913;-62
2021/09/12 05:16:33;;;;;;;;;;;;;;;;;;10290137;28;20104;-62
2021/09/12 05:21:30;;;;;;;;;;;;;;;;;;10263980;28;19988;-62
2021/09/12 05:26:27;;;;;;;;;;;;;;;;;;10303228;28;19936;-61
2021/09/12 05:31:25;;;;;;;;;;;;;;;;;;10235725;28;20560;-62
2021/09/12 05:36:22;;;;;;;;;;;;;;;;;;10269459;28;20367;-63
2021/09/12 05:41:19;;;;;;;;;;;;;;;;;;10222771;28;19920;-63
2021/09/12 05:46:17;;;;;;;;;;;;;;;;;;10238447;28;19953;-63
2021/09/12 05:51:14;;;;;;;;;;;;;;;;;;10254746;28;20471;-63
2021/09/12 05:56:11;;;;;;;;;;;;;;;;;;10224899;28;20004;-64
2021/09/12 06:01:08;;;;;;;;;;;;;;;;;;10222576;28;19990;-61
2021/09/12 06:06:06;;;;;;;;;;;;;;;;;;10237171;28;20416;-63
2021/09/12 06:11:03;;;;;;;;;;;;;;;;;;10230284;28;21197;-62
2021/09/12 06:16:01;;;;;;;;;;;;;;;;;;10227426;28;19913;-63
2021/09/12 06:20:58;;;;;;;;;;;;;;;;;;10229216;28;19932;-64
2021/09/12 06:25:55;;;;;;;;;;;;;;;;;;10226723;28;19909;-63
2021/09/12 06:30:53;;;;;;;;;;;;;;;;;;10213816;28;19913;-62
2021/09/12 06:35:50;;;;;;;;;;;;;;;;;;10199591;28;20033;-63
2021/09/12 06:40:47;;;;;;;;;;;;;;;;;;10235976;28;19914;-62
2021/09/12 06:45:44;;;;;;;;;;;;;;;;;;10246670;28;19977;-62
2021/09/12 06:50:42;;;;;;;;;;;;;;;;;;10224648;28;19924;-60
2021/09/12 06:55:39;;;;;;;;;;;;;;;;;;10224471;28;19927;-62
2021/09/12 07:00:37;;;;;;;;;;;;;;;;;;10202624;28;19913;-63
2021/09/12 07:05:34;;;;;;;;;;;;;;;;;;10212968;28;19988;-62
2021/09/12 07:10:31;;;;;;;;;;;;;;;;;;10206177;28;20390;-62
2021/09/12 07:15:29;;;;;;;;;;;;;;;;;;10243531;28;19921;-62
2021/09/12 07:20:26;;;;;;;;;;;;;;;;;;10223127;28;19944;-64
2021/09/12 07:25:23;;;;;;;;;;;;;;;;;;10201267;28;20148;-63
2021/09/12 07:30:20;;;;;;;;;;;;;;;;;;10204243;28;20378;-64
2021/09/12 07:35:18;;;;;;;;;;;;;;;;;;10219554;28;19926;-63
2021/09/12 07:40:15;;;;;;;;;;;;;;;;;;10260294;28;19920;-63
2021/09/12 07:45:13;;;;;;;;;;;;;;;;;;10223871;28;20383;-64
2021/09/12 07:50:11;;;;;;;;;;;;;;;;;;10232107;28;19917;-63
2021/09/12 07:55:09;;;;;;;;;;;;;;;;;;10243246;28;19921;-62
2021/09/12 08:00:06;;;;;;;;;;;;;;;;;;10227244;28;20375;-64
2021/09/12 08:05:09;;;;;;;;;;;;;;;;;;10225744;28;19913;-63
2021/09/12 08:10:06;;;;;;;;;;;;;;;;;;10206489;28;19913;-63
2021/09/12 08:15:03;;;;;;;;;;;;;;;;;;10211443;28;19921;-63
2021/09/12 08:20:00;;;;;;;;;;;;;;;;;;10212323;28;20291;-64
2021/09/12 08:24:58;;;;;;;;;;;;;;;;;;10216795;28;20563;-64
2021/09/12 08:29:56;;;;;;;;;;;;;;;;;;10214714;28;19913;-64
2021/09/12 08:34:53;;;;;;;;;;;;;;;;;;10219353;28;19932;-64
2021/09/12 08:39:50;;;;;;;;;;;;;;;;;;10226982;28;19936;-63
2021/09/12 08:44:48;;;;;;;;;;;;;;;;;;10208685;28;19989;-63
2021/09/12 08:49:45;;;;;;;;;;;;;;;;;;10212328;28;20437;-63
2021/09/12 08:54:42;;;;;;;;;;;;;;;;;;10218814;28;19983;-63
2021/09/12 08:59:39;;;;;;;;;;;;;;;;;;10206899;28;19924;-63
2021/09/12 09:04:37;;;;;;;;;;;;;;;;;;10207446;28;19917;-62
2021/09/12 09:09:34;;;;;;;;;;;;;;;;;;10212150;28;20302;-65
2021/09/12 09:14:31;;;;;;;;;;;;;;;;;;10217401;28;20375;-64
2021/09/12 09:19:29;;;;;;;;;;;;;;;;;;10239501;28;20020;-64
2021/09/12 09:24:26;;;;;;;;;;;;;;;;;;10215715;28;19972;-64
2021/09/12 09:29:23;;;;;;;;;;;;;;;;;;10222445;28;20341;-64
2021/09/12 09:34:21;;;;;;;;;;;;;;;;;;10216083;28;19918;-63
2021/09/12 09:39:18;;;;;;;;;;;;;;;;;;10227102;28;19918;-63
2021/09/12 09:44:22;;;;;;;;;;;;;;;;;;10231302;28;20371;-63
2021/09/12 09:49:19;;;;;;;;;;;;;;;;;;10245933;28;19914;-63
2021/09/12 09:54:17;;;;;;;;;;;;;;;;;;10206660;28;19944;-64
2021/09/12 09:59:14;;;;;;;;;;;;;;;;;;10205431;28;19914;-63
2021/09/12 10:04:11;;;;;;;;;;;;;;;;;;10203838;28;19964;-64
2021/09/12 10:09:09;;;;;;;;;;;;;;;;;;10211077;28;19961;-63
2021/09/12 10:14:06;;;;;;;;;;;;;;;;;;10216622;28;19940;-64
2021/09/12 10:19:03;;;;;;;;;;;;;;;;;;10222511;28;19920;-64
2021/09/12 10:24:01;;;;;;;;;;;;;;;;;;10224652;28;19956;-64
2021/09/12 10:28:58;;;;;;;;;;;;;;;;;;10235781;28;19920;-64
2021/09/12 10:33:55;;;;;;;;;;;;;;;;;;10234855;28;20406;-63
2021/09/12 10:38:53;;;;;;;;;;;;;;;;;;10247269;28;20201;-64
2021/09/12 10:43:50;;;;;;;;;;;;;;;;;;10230772;28;19918;-63
2021/09/12 10:48:47;;;;;;;;;;;;;;;;;;10239436;28;19996;-64
2021/09/12 10:53:48;;;;;;;;;;;;;;;;;;10236319;28;19922;-64
2021/09/12 10:58:45;;;;;;;;;;;;;;;;;;10214675;28;19973;-64
2021/09/12 11:03:42;;;;;;;;;;;;;;;;;;10237882;28;20079;-64
2021/09/12 11:08:40;;;;;;;;;;;;;;;;;;10250119;28;19924;-62
2021/09/12 11:13:37;;;;;;;;;;;;;;;;;;10233714;28;19913;-64
2021/09/12 11:18:34;;;;;;;;;;;;;;;;;;10236014;28;19913;-64
2021/09/12 11:23:33;;;;;;;;;;;;;;;;;;10224970;28;19928;-65
2021/09/12 11:28:30;;;;;;;;;;;;;;;;;;10237498;28;20180;-63
2021/09/12 11:33:27;;;;;;;;;;;;;;;;;;10231806;28;19913;-63
2021/09/12 11:38:24;;;;;;;;;;;;;;;;;;10239471;28;20231;-64
2021/09/12 11:43:22;;;;;;;;;;;;;;;;;;10235875;28;19918;-64
2021/09/12 11:48:19;;;;;;;;;;;;;;;;;;10217678;28;21402;-64
2021/09/12 11:53:16;;;;;;;;;;;;;;;;;;10224790;28;19929;-64
2021/09/12 11:58:13;;;;;;;;;;;;;;;;;;10216163;28;19952;-64
2021/09/12 12:03:11;;;;;;;;;;;;;;;;;;10217907;28;19914;-64
2021/09/12 12:08:10;;;;;;;;;;;;;;;;;;10222951;28;19913;-64
2021/09/12 12:13:07;;;;;;;;;;;;;;;;;;10229154;28;19964;-64
2021/09/12 12:18:04;;;;;;;;;;;;;;;;;;10225114;28;19972;-64
2021/09/12 12:23:01;;;;;;;;;;;;;;;;;;10229575;28;19917;-64
2021/09/12 12:27:59;;;;;;;;;;;;;;;;;;10220530;28;20298;-65
2021/09/12 12:32:56;;;;;;;;;;;;;;;;;;10241770;28;19910;-64
2021/09/12 12:37:53;;;;;;;;;;;;;;;;;;10228834;28;19920;-63
2021/09/12 12:42:50;;;;;;;;;;;;;;;;;;10238891;28;19910;-63
2021/09/12 12:47:48;;;;;;;;;;;;;;;;;;10229712;28;19917;-62
2021/09/12 12:52:45;;;;;;;;;;;;;;;;;;10227471;28;19917;-63
2021/09/12 12:57:46;;;;;;;;;;;;;;;;;;10226002;28;19954;-63
2021/09/12 13:02:43;;;;;;;;;;;;;;;;;;10213752;28;19913;-63
2021/09/12 13:07:40;;;;;;;;;;;;;;;;;;10249993;28;19921;-63
2021/09/12 13:12:38;;;;;;;;;;;;;;;;;;10219319;28;19913;-63
2021/09/12 13:17:35;;;;;;;;;;;;;;;;;;10222046;28;19941;-63
2021/09/12 13:22:32;;;;;;;;;;;;;;;;;;10219788;28;19913;-63
2021/09/12 13:27:30;;;;;;;;;;;;;;;;;;10240176;28;20295;-63
2021/09/12 13:32:27;;;;;;;;;;;;;;;;;;10228833;28;20014;-63
2021/09/12 13:37:24;;;;;;;;;;;;;;;;;;10238876;28;19927;-64
2021/09/12 13:42:21;;;;;;;;;;;;;;;;;;10237753;28;19913;-63
2021/09/12 13:47:19;;;;;;;;;;;;;;;;;;10220869;28;20318;-63
2021/09/12 13:52:16;;;;;;;;;;;;;;;;;;10229040;28;19914;-63
2021/09/12 13:57:13;;;;;;;;;;;;;;;;;;10237687;28;20016;-63
2021/09/12 14:02:11;;;;;;;;;;;;;;;;;;10226222;28;19917;-63
2021/09/12 14:07:08;;;;;;;;;;;;;;;;;;10220255;28;20323;-63
2021/09/12 14:12:06;;;;;;;;;;;;;;;;;;10236921;28;19997;-63
2021/09/12 14:17:03;;;;;;;;;;;;;;;;;;10227973;28;19925;-64
2021/09/12 14:22:01;;;;;;;;;;;;;;;;;;10239934;28;19927;-63
2021/09/12 14:26:58;;;;;;;;;;;;;;;;;;10233763;28;20036;-62
2021/09/12 14:31:55;;;;;;;;;;;;;;;;;;10220712;28;20481;-65
2021/09/12 14:36:53;;;;;;;;;;;;;;;;;;10230488;28;19917;-63
2021/09/12 14:41:50;;;;;;;;;;;;;;;;;;10232052;28;20379;-64
2021/09/12 14:46:47;;;;;;;;;;;;;;;;;;10223530;28;19917;-66
2021/09/12 14:51:44;;;;;;;;;;;;;;;;;;10231535;28;20458;-64
2021/09/12 14:56:43;;;;;;;;;;;;;;;;;;10235733;28;19928;-64
2021/09/12 15:01:42;;;;;;;;;;;;;;;;;;10230095;28;20545;-64
2021/09/12 15:06:39;;;;;;;;;;;;;;;;;;10240738;28;20041;-64
2021/09/12 15:11:37;;;;;;;;;;;;;;;;;;10233960;28;19936;-65
2021/09/12 15:16:34;;;;;;;;;;;;;;;;;;10211637;28;19921;-64
2021/09/12 15:21:31;;;;;;;;;;;;;;;;;;10205209;28;19917;-64
2021/09/12 15:26:29;;;;;;;;;;;;;;;;;;10231000;28;19929;-64
2021/09/12 15:31:26;;;;;;;;;;;;;;;;;;10233895;28;19921;-63
2021/09/12 15:36:23;;;;;;;;;;;;;;;;;;10248244;28;20290;-63
2021/09/12 15:41:20;;;;;;;;;;;;;;;;;;10202574;28;20711;-64
2021/09/12 15:46:17;;;;;;;;;;;;;;;;;;10210482;28;19921;-63
2021/09/12 15:51:15;;;;;;;;;;;;;;;;;;10234798;28;19914;-64
2021/09/12 15:56:12;;;;;;;;;;;;;;;;;;10234340;28;19976;-64
2021/09/12 16:01:09;;;;;;;;;;;;;;;;;;10227920;28;19924;-64
2021/09/12 16:06:07;;;;;;;;;;;;;;;;;;10195650;28;19920;-63
2021/09/12 16:11:04;;;;;;;;;;;;;;;;;;10231633;28;19913;-64
2021/09/12 16:16:01;;;;;;;;;;;;;;;;;;10220668;28;19925;-64
2021/09/12 16:20:58;;;;;;;;;;;;;;;;;;10225596;28;19958;-64
2021/09/12 16:25:56;;;;;;;;;;;;;;;;;;10221738;28;20062;-63
2021/09/12 16:30:53;;;;;;;;;;;;;;;;;;10225868;28;19914;-64
2021/09/12 16:35:52;;;;;;;;;;;;;;;;;;10220858;28;20375;-63
2021/09/12 16:40:49;;;;;;;;;;;;;;;;;;10223506;28;19914;-64
2021/09/12 16:46:08;;;;;;;;;;;;;;;;;;10231321;28;19925;-64
2021/09/12 16:51:04;;;;;;;;;;;;;;;;;;10222723;28;19914;-64
2021/09/12 16:56:01;;;;;;;;;;;;;;;;;;10231109;28;20287;-64
2021/09/12 17:01:01;;;;;;;;;;;;;;;;;;10239768;28;19921;-64
2021/09/12 17:05:58;;;;;;;;;;;;;;;;;;10245604;28;19917;-64
2021/09/12 17:10:56;;;;;;;;;;;;;;;;;;10227259;28;19968;-64
2021/09/12 17:15:53;;;;;;;;;;;;;;;;;;10227351;28;19956;-64
2021/09/12 17:20:50;;;;;;;;;;;;;;;;;;10234221;28;19921;-63
2021/09/12 17:25:48;;;;;;;;;;;;;;;;;;10218974;28;19948;-64
2021/09/12 17:30:45;;;;;;;;;;;;;;;;;;10237401;28;19914;-64
2021/09/12 17:35:43;;;;;;;;;;;;;;;;;;10235018;28;20278;-63
2021/09/12 17:40:41;;;;;;;;;;;;;;;;;;10223932;28;19914;-65
2021/09/12 17:45:38;;;;;;;;;;;;;;;;;;10228310;28;19913;-65
2021/09/12 17:50:36;;;;;;;;;;;;;;;;;;10228753;28;19921;-64
2021/09/12 17:55:33;;;;;;;;;;;;;;;;;;10235202;28;19921;-65
2021/09/12 18:00:30;;;;;;;;;;;;;;;;;;10231820;28;19920;-64
2021/09/12 18:05:27;;;;;;;;;;;;;;;;;;10221486;28;19964;-64
2021/09/12 18:10:25;;;;;;;;;;;;;;;;;;10212103;28;19921;-64
2021/09/12 18:15:22;;;;;;;;;;;;;;;;;;10222044;28;19917;-65
2021/09/12 18:20:19;;;;;;;;;;;;;;;;;;10222137;28;20000;-64
2021/09/12 18:25:21;;;;;;;;;;;;;;;;;;10226357;28;20596;-64
2021/09/12 18:30:18;;;;;;;;;;;;;;;;;;10234967;28;19980;-65
2021/09/12 18:35:15;;;;;;;;;;;;;;;;;;10227133;28;19925;-62
2021/09/12 18:40:13;;;;;;;;;;;;;;;;;;10232873;28;19953;-64
2021/09/12 18:45:10;;;;;;;;;;;;;;;;;;10239971;28;19917;-64
2021/09/12 18:50:07;;;;;;;;;;;;;;;;;;10237727;28;20202;-64
2021/09/12 18:55:05;;;;;;;;;;;;;;;;;;10238376;28;19921;-64
2021/09/12 19:00:03;;;;;;;;;;;;;;;;;;10229128;28;19913;-65
2021/09/12 19:05:00;;;;;;;;;;;;;;;;;;10233809;28;20280;-64
2021/09/12 19:09:58;;;;;;;;;;;;;;;;;;10233987;28;19921;-63
2021/09/12 19:14:55;;;;;;;;;;;;;;;;;;10248585;28;19975;-64
2021/09/12 19:19:52;;;;;;;;;;;;;;;;;;10239505;28;19914;-64
2021/09/12 19:24:51;;;;;;;;;;;;;;;;;;10239542;28;19924;-63
2021/09/12 19:29:49;;;;;;;;;;;;;;;;;;10242432;28;20008;-64
2021/09/12 19:34:48;;;;;;;;;;;;;;;;;;10234038;28;19965;-64
2021/09/12 19:39:47;;;;;;;;;;;;;;;;;;10232513;28;19992;-63
2021/09/12 19:44:44;;;;;;;;;;;;;;;;;;10233322;28;19962;-63
2021/09/12 19:49:42;;;;;;;;;;;;;;;;;;10231374;28;20049;-63
2021/09/12 19:54:40;;;;;;;;;;;;;;;;;;10240005;28;19963;-64
2021/09/12 19:59:38;;;;;;;;;;;;;;;;;;10224818;28;19913;-65
2021/09/12 20:04:35;;;;;;;;;;;;;;;;;;10234932;28;19917;-64
2021/09/12 20:09:32;;;;;;;;;;;;;;;;;;10229814;28;20275;-64
2021/09/12 20:14:30;;;;;;;;;;;;;;;;;;10228018;28;19930;-64
2021/09/12 20:19:27;;;;;;;;;;;;;;;;;;10236373;28;20390;-63
2021/09/12 20:24:24;;;;;;;;;;;;;;;;;;10224945;28;19920;-64
2021/09/12 20:29:21;;;;;;;;;;;;;;;;;;10235967;28;19913;-63
2021/09/12 20:34:19;;;;;;;;;;;;;;;;;;10240112;28;19925;-64
2021/09/12 20:39:16;;;;;;;;;;;;;;;;;;10215395;28;19928;-64
2021/09/12 20:44:13;;;;;;;;;;;;;;;;;;10224931;28;19976;-64
2021/09/12 20:49:11;;;;;;;;;;;;;;;;;;10238986;28;19920;-64
2021/09/12 20:54:09;;;;;;;;;;;;;;;;;;10213445;28;20529;-64
2021/09/12 20:59:06;;;;;;;;;;;;;;;;;;10232228;28;20007;-64
2021/09/12 21:04:03;;;;;;;;;;;;;;;;;;10226284;28;20375;-64
2021/09/12 21:09:00;;;;;;;;;;;;;;;;;;10206260;28;20214;-64
2021/09/12 21:13:58;;;;;;;;;;;;;;;;;;10224019;28;19923;-63
2021/09/12 21:18:55;;;;;;;;;;;;;;;;;;10231537;28;20344;-63
2021/09/12 21:23:52;;;;;;;;;;;;;;;;;;10234175;28;20023;-64
2021/09/12 21:28:49;;;;;;;;;;;;;;;;;;10216313;28;19921;-63
2021/09/12 21:33:47;;;;;;;;;;;;;;;;;;10244568;28;20386;-64
2021/09/12 21:38:45;;;;;;;;;;;;;;;;;;10222836;28;19925;-63
2021/09/12 21:43:42;;;;;;;;;;;;;;;;;;10244772;28;20371;-64
2021/09/12 21:48:40;;;;;;;;;;;;;;;;;;10223038;28;20034;-64
2021/09/12 21:53:37;;;;;;;;;;;;;;;;;;10227331;28;19914;-63
2021/09/12 21:58:34;;;;;;;;;;;;;;;;;;10218549;28;19932;-63
2021/09/12 22:03:31;;;;;;;;;;;;;;;;;;10234322;28;19947;-63
2021/09/12 22:08:29;;;;;;;;;;;;;;;;;;10218384;28;19923;-62
2021/09/12 22:13:26;;;;;;;;;;;;;;;;;;10236534;28;19921;-64
2021/09/12 22:18:23;;;;;;;;;;;;;;;;;;10243830;28;19921;-64
2021/09/12 22:23:21;;;;;;;;;;;;;;;;;;10219538;28;20449;-65
2021/09/12 22:28:18;;;;;;;;;;;;;;;;;;10237949;28;19949;-62
2021/09/12 22:33:16;;;;;;;;;;;;;;;;;;10219235;28;19949;-61
2021/09/12 22:38:13;;;;;;;;;;;;;;;;;;10239640;28;19957;-63
2021/09/12 22:43:11;;;;;;;;;;;;;;;;;;10249215;28;19960;-63
2021/09/12 22:48:08;;;;;;;;;;;;;;;;;;10237655;28;20267;-65
2021/09/12 22:53:05;;;;;;;;;;;;;;;;;;10239819;28;19915;-63
2021/09/12 22:58:02;;;;;;;;;;;;;;;;;;10239100;28;20356;-64
2021/09/12 23:03:00;;;;;;;;;;;;;;;;;;10248711;28;20578;-65
2021/09/12 23:07:57;;;;;;;;;;;;;;;;;;10246895;28;19909;-65
2021/09/12 23:12:54;;;;;;;;;;;;;;;;;;10246592;28;19932;-63
2021/09/12 23:17:51;;;;;;;;;;;;;;;;;;10242965;28;20318;-63
2021/09/12 23:22:49;;;;;;;;;;;;;;;;;;10241602;28;20012;-63
2021/09/12 23:27:46;;;;;;;;;;;;;;;;;;10222808;28;19917;-64
2021/09/12 23:32:43;;;;;;;;;;;;;;;;;;10231179;28;20347;-63
2021/09/12 23:37:40;;;;;;;;;;;;;;;;;;10222917;28;20018;-63
2021/09/12 23:42:38;;;;;;;;;;;;;;;;;;10215010;28;19913;-64
2021/09/12 23:47:35;;;;;;;;;;;;;;;;;;10227476;28;19917;-64
2021/09/12 23:52:32;;;;;;;;;;;;;;;;;;10235029;28;19917;-63
2021/09/12 23:57:29;;;;;;;;;;;;;;;;;;10222617;28;20009;-63
